Terminal Aerodrome Forecast
Issued by NWS Caribou, ME

Home | Current Version | Previous Version | Text Only | Print | Product List | Glossary On
Versions: 1 2 3 4 5 6 7 8 9 10 11 12 13 14 15
000
FTUS41 KCAR 250320 AAA
TAFBGR
TAF AMD
KBGR 250320Z 2503/2524 36009KT P6SM OVC050
     FM250500 32012KT P6SM SCT120
     FM251400 28010G20KT P6SM SCT200=

USA.gov is the U.S. government's official web portal to all federal, state and local government web resources and services.